sensor_id;sensor_type;location;lat;lon;timestamp;pressure;altitude;pressure_sealevel;temperature;humidity
23996;BME280;12207;50.076;8.848;2024-02-21T00:01:55;100889.81;;;9.11;93.28
23996;BME280;12207;50.076;8.848;2024-02-21T00:04:21;100905.50;;;9.14;94.34
23996;BME280;12207;50.076;8.848;2024-02-21T00:06:47;100908.97;;;9.00;98.20
23996;BME280;12207;50.076;8.848;2024-02-21T00:09:17;100909.09;;;8.92;99.66
23996;BME280;12207;50.076;8.848;2024-02-21T00:11:44;100911.84;;;8.84;100.00
23996;BME280;12207;50.076;8.848;2024-02-21T00:14:10;100901.22;;;8.76;100.00
23996;BME280;12207;50.076;8.848;2024-02-21T00:16:36;100897.72;;;8.75;100.00
23996;BME280;12207;50.076;8.848;2024-02-21T00:19:02;100894.22;;;8.75;100.00
23996;BME280;12207;50.076;8.848;2024-02-21T00:21:29;100895.78;;;8.69;100.00
23996;BME280;12207;50.076;8.848;2024-02-21T00:23:55;100898.19;;;8.64;100.00
23996;BME280;12207;50.076;8.848;2024-02-21T00:26:21;100897.41;;;8.55;100.00
23996;BME280;12207;50.076;8.848;2024-02-21T00:28:47;100893.44;;;8.51;100.00
23996;BME280;12207;50.076;8.848;2024-02-21T00:31:13;100892.81;;;8.49;100.00
23996;BME280;12207;50.076;8.848;2024-02-21T00:33:40;100887.19;;;8.44;100.00
23996;BME280;12207;50.076;8.848;2024-02-21T00:36:08;100877.78;;;8.48;100.00
23996;BME280;12207;50.076;8.848;2024-02-21T00:38:34;100869.41;;;8.51;100.00
23996;BME280;12207;50.076;8.848;2024-02-21T00:41:01;100861.38;;;8.51;100.00
23996;BME280;12207;50.076;8.848;2024-02-21T00:43:27;100865.34;;;8.55;100.00
23996;BME280;12207;50.076;8.848;2024-02-21T00:45:53;100850.53;;;8.53;100.00
23996;BME280;12207;50.076;8.848;2024-02-21T00:48:19;100844.44;;;8.44;100.00
23996;BME280;12207;50.076;8.848;2024-02-21T00:50:45;100837.91;;;8.47;100.00
23996;BME280;12207;50.076;8.848;2024-02-21T00:53:11;100838.09;;;8.45;100.00
23996;BME280;12207;50.076;8.848;2024-02-21T00:55:38;100842.06;;;8.49;100.00
23996;BME280;12207;50.076;8.848;2024-02-21T00:58:04;100831.75;;;8.46;100.00
23996;BME280;12207;50.076;8.848;2024-02-21T01:00:30;100824.38;;;8.48;100.00
23996;BME280;12207;50.076;8.848;2024-02-21T01:02:56;100819.88;;;8.49;100.00
23996;BME280;12207;50.076;8.848;2024-02-21T01:05:22;100819.41;;;8.45;100.00
23996;BME280;12207;50.076;8.848;2024-02-21T01:07:48;100814.78;;;8.39;100.00
23996;BME280;12207;50.076;8.848;2024-02-21T01:10:15;100811.94;;;8.41;100.00
23996;BME280;12207;50.076;8.848;2024-02-21T01:12:41;100813.13;;;8.38;100.00
23996;BME280;12207;50.076;8.848;2024-02-21T01:15:07;100814.41;;;8.42;100.00
23996;BME280;12207;50.076;8.848;2024-02-21T01:17:33;100822.25;;;8.44;100.00
23996;BME280;12207;50.076;8.848;2024-02-21T01:19:59;100828.06;;;8.47;100.00
23996;BME280;12207;50.076;8.848;2024-02-21T01:22:25;100827.59;;;8.44;100.00
23996;BME280;12207;50.076;8.848;2024-02-21T01:24:51;100828.78;;;8.41;100.00
23996;BME280;12207;50.076;8.848;2024-02-21T01:27:18;100829.25;;;8.45;100.00
23996;BME280;12207;50.076;8.848;2024-02-21T01:29:44;100828.06;;;8.47;100.00
23996;BME280;12207;50.076;8.848;2024-02-21T01:32:10;100832.09;;;8.43;100.00
23996;BME280;12207;50.076;8.848;2024-02-21T01:34:36;100834.69;;;8.51;100.00
23996;BME280;12207;50.076;8.848;2024-02-21T01:37:05;100837.28;;;8.45;100.00
23996;BME280;12207;50.076;8.848;2024-02-21T01:39:33;100837.63;;;8.42;100.00
23996;BME280;12207;50.076;8.848;2024-02-21T01:42:00;100840.78;;;8.45;100.00
23996;BME280;12207;50.076;8.848;2024-02-21T01:44:26;100838.47;;;8.42;100.00
23996;BME280;12207;50.076;8.848;2024-02-21T01:46:53;100827.59;;;8.44;100.00
23996;BME280;12207;50.076;8.848;2024-02-21T01:49:20;100820.97;;;8.54;100.00
23996;BME280;12207;50.076;8.848;2024-02-21T01:51:47;100815.38;;;8.49;100.00
23996;BME280;12207;50.076;8.848;2024-02-21T01:54:14;100809.19;;;8.49;100.00
23996;BME280;12207;50.076;8.848;2024-02-21T01:56:42;100791.88;;;8.45;100.00
23996;BME280;12207;50.076;8.848;2024-02-21T01:59:09;100799.22;;;8.43;100.00
23996;BME280;12207;50.076;8.848;2024-02-21T02:01:35;100790.28;;;8.50;100.00
23996;BME280;12207;50.076;8.848;2024-02-21T02:04:02;100791.03;;;8.44;100.00
23996;BME280;12207;50.076;8.848;2024-02-21T02:06:31;100800.41;;;8.40;100.00
23996;BME280;12207;50.076;8.848;2024-02-21T02:08:57;100790.09;;;8.37;100.00
23996;BME280;12207;50.076;8.848;2024-02-21T02:11:23;100793.78;;;8.36;100.00
23996;BME280;12207;50.076;8.848;2024-02-21T02:13:50;100794.81;;;8.27;100.00
23996;BME280;12207;50.076;8.848;2024-02-21T02:16:16;100796.50;;;8.28;100.00
23996;BME280;12207;50.076;8.848;2024-02-21T02:18:42;100791.16;;;8.28;100.00
23996;BME280;12207;50.076;8.848;2024-02-21T02:21:39;100803.50;;;8.29;100.00
23996;BME280;12207;50.076;8.848;2024-02-21T02:24:02;100794.81;;;8.27;100.00
23996;BME280;12207;50.076;8.848;2024-02-21T02:26:28;100794.22;;;8.25;100.00
23996;BME280;12207;50.076;8.848;2024-02-21T02:28:54;100782.59;;;8.18;100.00
23996;BME280;12207;50.076;8.848;2024-02-21T02:31:20;100784.91;;;8.21;100.00
23996;BME280;12207;50.076;8.848;2024-02-21T02:33:47;100784.91;;;8.21;100.00
23996;BME280;12207;50.076;8.848;2024-02-21T02:36:14;100777.06;;;8.19;100.00
23996;BME280;12207;50.076;8.848;2024-02-21T02:38:40;100772.91;;;8.17;100.00
23996;BME280;12207;50.076;8.848;2024-02-21T02:41:06;100768.53;;;8.24;100.00
23996;BME280;12207;50.076;8.848;2024-02-21T02:43:32;100767.41;;;8.18;100.00
23996;BME280;12207;50.076;8.848;2024-02-21T02:45:58;100754.78;;;8.12;100.00
23996;BME280;12207;50.076;8.848;2024-02-21T02:48:24;100755.59;;;8.13;100.00
23996;BME280;12207;50.076;8.848;2024-02-21T02:50:50;100750.44;;;8.11;100.00
23996;BME280;12207;50.076;8.848;2024-02-21T02:53:17;100744.22;;;8.19;100.00
23996;BME280;12207;50.076;8.848;2024-02-21T02:55:43;100735.56;;;8.17;100.00
23996;BME280;12207;50.076;8.848;2024-02-21T02:58:09;100734.53;;;8.18;100.00
23996;BME280;12207;50.076;8.848;2024-02-21T03:00:35;100733.59;;;8.11;100.00
23996;BME280;12207;50.076;8.848;2024-02-21T03:03:02;100736.19;;;8.19;100.00
23996;BME280;12207;50.076;8.848;2024-02-21T03:05:31;100736.94;;;8.13;100.00
23996;BME280;12207;50.076;8.848;2024-02-21T03:07:57;100732.78;;;8.10;100.00
23996;BME280;12207;50.076;8.848;2024-02-21T03:10:24;100742.63;;;8.10;100.00
23996;BME280;12207;50.076;8.848;2024-02-21T03:12:50;100743.09;;;8.13;100.00
23996;BME280;12207;50.076;8.848;2024-02-21T03:15:19;100741.25;;;8.14;100.00
23996;BME280;12207;50.076;8.848;2024-02-21T03:17:45;100733.91;;;8.16;100.00
23996;BME280;12207;50.076;8.848;2024-02-21T03:20:11;100721.19;;;8.18;100.00
23996;BME280;12207;50.076;8.848;2024-02-21T03:22:37;100710.06;;;8.14;100.00
23996;BME280;12207;50.076;8.848;2024-02-21T03:25:04;100709.41;;;8.12;100.00
23996;BME280;12207;50.076;8.848;2024-02-21T03:27:30;100709.22;;;8.14;100.00
23996;BME280;12207;50.076;8.848;2024-02-21T03:29:56;100700.84;;;8.17;100.00
23996;BME280;12207;50.076;8.848;2024-02-21T03:32:22;100696.88;;;8.13;100.00
23996;BME280;12207;50.076;8.848;2024-02-21T03:34:48;100696.59;;;8.08;100.00
23996;BME280;12207;50.076;8.848;2024-02-21T03:37:15;100696.72;;;8.14;100.00
23996;BME280;12207;50.076;8.848;2024-02-21T03:39:41;100695.41;;;8.10;100.00
23996;BME280;12207;50.076;8.848;2024-02-21T03:42:07;100694.59;;;8.10;100.00
23996;BME280;12207;50.076;8.848;2024-02-21T03:44:33;100693.22;;;8.14;100.00
23996;BME280;12207;50.076;8.848;2024-02-21T03:47:00;100681.53;;;8.15;100.00
23996;BME280;12207;50.076;8.848;2024-02-21T03:49:26;100681.53;;;8.15;100.00
23996;BME280;12207;50.076;8.848;2024-02-21T03:51:52;100682.34;;;8.15;100.00
23996;BME280;12207;50.076;8.848;2024-02-21T03:54:19;100682.16;;;8.17;100.00
23996;BME280;12207;50.076;8.848;2024-02-21T03:56:48;100677.84;;;8.16;100.00
23996;BME280;12207;50.076;8.848;2024-02-21T03:59:22;100677.19;;;8.14;100.00
23996;BME280;12207;50.076;8.848;2024-02-21T04:01:52;100676.66;;;8.18;100.00
23996;BME280;12207;50.076;8.848;2024-02-21T04:04:18;100687.97;;;8.20;100.00
23996;BME280;12207;50.076;8.848;2024-02-21T04:06:50;100701.31;;;8.20;100.00
23996;BME280;12207;50.076;8.848;2024-02-21T04:09:17;100690.81;;;8.19;100.00
23996;BME280;12207;50.076;8.848;2024-02-21T04:11:43;100691.75;;;8.26;100.00
23996;BME280;12207;50.076;8.848;2024-02-21T04:14:09;100688.44;;;8.24;100.00
23996;BME280;12207;50.076;8.848;2024-02-21T04:16:37;100677.75;;;8.24;100.00
23996;BME280;12207;50.076;8.848;2024-02-21T04:19:04;100682.91;;;8.26;100.00
23996;BME280;12207;50.076;8.848;2024-02-21T04:21:30;100678.00;;;8.29;100.00
23996;BME280;12207;50.076;8.848;2024-02-21T04:23:56;100670.66;;;8.31;100.00
23996;BME280;12207;50.076;8.848;2024-02-21T04:26:22;100666.69;;;8.27;100.00
23996;BME280;12207;50.076;8.848;2024-02-21T04:28:48;100662.41;;;8.26;100.00
23996;BME280;12207;50.076;8.848;2024-02-21T04:31:14;100666.25;;;8.24;100.00
23996;BME280;12207;50.076;8.848;2024-02-21T04:33:43;100644.06;;;8.23;100.00
23996;BME280;12207;50.076;8.848;2024-02-21T04:36:10;100635.22;;;8.23;100.00
23996;BME280;12207;50.076;8.848;2024-02-21T04:38:36;100633.13;;;8.18;100.00
23996;BME280;12207;50.076;8.848;2024-02-21T04:41:02;100628.78;;;8.17;100.00
23996;BME280;12207;50.076;8.848;2024-02-21T04:43:28;100631.81;;;8.14;100.00
23996;BME280;12207;50.076;8.848;2024-02-21T04:45:54;100624.53;;;8.08;100.00
23996;BME280;12207;50.076;8.848;2024-02-21T04:48:20;100618.31;;;8.01;100.00
23996;BME280;12207;50.076;8.848;2024-02-21T04:50:46;100613.34;;;7.98;100.00
23996;BME280;12207;50.076;8.848;2024-02-21T04:53:12;100609.84;;;7.97;100.00
23996;BME280;12207;50.076;8.848;2024-02-21T04:55:38;100608.72;;;7.92;100.00
23996;BME280;12207;50.076;8.848;2024-02-21T04:58:06;100621.13;;;7.84;100.00
23996;BME280;12207;50.076;8.848;2024-02-21T05:00:32;100614.31;;;7.82;100.00
23996;BME280;12207;50.076;8.848;2024-02-21T05:02:58;100611.47;;;7.83;100.00
23996;BME280;12207;50.076;8.848;2024-02-21T05:05:24;100614.16;;;7.83;100.00
23996;BME280;12207;50.076;8.848;2024-02-21T05:07:50;100607.81;;;7.84;100.00
23996;BME280;12207;50.076;8.848;2024-02-21T05:10:16;100601.63;;;7.84;100.00
23996;BME280;12207;50.076;8.848;2024-02-21T05:12:43;100593.81;;;7.82;100.00
23996;BME280;12207;50.076;8.848;2024-02-21T05:15:09;100595.84;;;7.80;100.00
23996;BME280;12207;50.076;8.848;2024-02-21T05:17:36;100598.72;;;7.79;100.00
23996;BME280;12207;50.076;8.848;2024-02-21T05:20:02;100598.72;;;7.79;100.00
23996;BME280;12207;50.076;8.848;2024-02-21T05:22:28;100605.25;;;7.76;100.00
23996;BME280;12207;50.076;8.848;2024-02-21T05:24:54;100610.00;;;7.81;100.00
23996;BME280;12207;50.076;8.848;2024-02-21T05:27:21;100611.22;;;7.78;100.00
23996;BME280;12207;50.076;8.848;2024-02-21T05:29:47;100615.44;;;7.73;100.00
23996;BME280;12207;50.076;8.848;2024-02-21T05:32:14;100623.09;;;7.76;100.00
23996;BME280;12207;50.076;8.848;2024-02-21T05:34:40;100621.59;;;7.73;100.00
23996;BME280;12207;50.076;8.848;2024-02-21T05:37:06;100625.94;;;7.74;100.00
23996;BME280;12207;50.076;8.848;2024-02-21T05:39:32;100633.94;;;7.74;100.00
23996;BME280;12207;50.076;8.848;2024-02-21T05:41:58;100641.75;;;7.76;100.00
23996;BME280;12207;50.076;8.848;2024-02-21T05:44:24;100639.63;;;7.71;100.00
23996;BME280;12207;50.076;8.848;2024-02-21T05:46:52;100646.53;;;7.80;100.00
23996;BME280;12207;50.076;8.848;2024-02-21T05:49:18;100643.50;;;7.83;100.00
23996;BME280;12207;50.076;8.848;2024-02-21T05:51:45;100640.81;;;7.83;100.00
23996;BME280;12207;50.076;8.848;2024-02-21T05:54:11;100635.78;;;7.88;100.00
23996;BME280;12207;50.076;8.848;2024-02-21T05:56:37;100629.59;;;7.88;100.00
23996;BME280;12207;50.076;8.848;2024-02-21T05:59:03;100627.13;;;7.86;100.00
23996;BME280;12207;50.076;8.848;2024-02-21T06:01:29;100617.66;;;7.84;100.00
23996;BME280;12207;50.076;8.848;2024-02-21T06:03:55;100611.41;;;7.92;100.00
23996;BME280;12207;50.076;8.848;2024-02-21T06:06:21;100604.03;;;7.94;100.00
23996;BME280;12207;50.076;8.848;2024-02-21T06:08:48;100598.34;;;7.97;100.00
23996;BME280;12207;50.076;8.848;2024-02-21T06:11:16;100603.69;;;7.97;100.00
23996;BME280;12207;50.076;8.848;2024-02-21T06:13:42;100612.88;;;7.94;100.00
23996;BME280;12207;50.076;8.848;2024-02-21T06:16:09;100608.00;;;7.98;100.00
23996;BME280;12207;50.076;8.848;2024-02-21T06:18:36;100607.53;;;7.94;100.00
23996;BME280;12207;50.076;8.848;2024-02-21T06:21:03;100598.53;;;7.95;100.00
23996;BME280;12207;50.076;8.848;2024-02-21T06:23:29;100585.72;;;7.91;100.00
23996;BME280;12207;50.076;8.848;2024-02-21T06:25:55;100572.94;;;7.86;100.00
23996;BME280;12207;50.076;8.848;2024-02-21T06:28:22;100576.06;;;7.90;100.00
23996;BME280;12207;50.076;8.848;2024-02-21T06:30:48;100578.47;;;7.84;100.00
23996;BME280;12207;50.076;8.848;2024-02-21T06:33:14;100575.78;;;7.84;100.00
23996;BME280;12207;50.076;8.848;2024-02-21T06:35:40;100584.16;;;7.81;100.00
23996;BME280;12207;50.076;8.848;2024-02-21T06:38:08;100589.06;;;7.78;100.00
23996;BME280;12207;50.076;8.848;2024-02-21T06:40:34;100584.91;;;7.75;100.00
23996;BME280;12207;50.076;8.848;2024-02-21T06:43:05;100578.22;;;7.79;100.00
23996;BME280;12207;50.076;8.848;2024-02-21T06:45:31;100572.88;;;7.79;100.00
23996;BME280;12207;50.076;8.848;2024-02-21T06:47:57;100576.72;;;7.77;100.00
23996;BME280;12207;50.076;8.848;2024-02-21T06:50:23;100565.41;;;7.75;100.00
23996;BME280;12207;50.076;8.848;2024-02-21T06:52:50;100561.09;;;7.74;100.00
23996;BME280;12207;50.076;8.848;2024-02-21T06:55:16;100556.31;;;7.69;100.00
23996;BME280;12207;50.076;8.848;2024-02-21T06:57:42;100550.25;;;7.75;100.00
23996;BME280;12207;50.076;8.848;2024-02-21T07:00:09;100553.16;;;7.80;100.00
23996;BME280;12207;50.076;8.848;2024-02-21T07:02:35;100558.59;;;7.87;100.00
23996;BME280;12207;50.076;8.848;2024-02-21T07:05:01;100559.06;;;7.91;100.00
23996;BME280;12207;50.076;8.848;2024-02-21T07:07:28;100556.38;;;7.91;100.00
23996;BME280;12207;50.076;8.848;2024-02-21T07:09:55;100570.00;;;7.96;100.00
23996;BME280;12207;50.076;8.848;2024-02-21T07:12:21;100575.50;;;8.09;100.00
23996;BME280;12207;50.076;8.848;2024-02-21T07:14:47;100569.69;;;8.20;100.00
23996;BME280;12207;50.076;8.848;2024-02-21T07:17:13;100573.19;;;8.35;99.53
23996;BME280;12207;50.076;8.848;2024-02-21T07:19:39;100563.06;;;8.45;99.11
23996;BME280;12207;50.076;8.848;2024-02-21T07:22:05;100563.09;;;8.52;98.86
23996;BME280;12207;50.076;8.848;2024-02-21T07:24:35;100560.25;;;8.53;98.68
23996;BME280;12207;50.076;8.848;2024-02-21T07:27:01;100561.84;;;8.48;98.69
23996;BME280;12207;50.076;8.848;2024-02-21T07:29:30;100550.75;;;8.51;98.80
23996;BME280;12207;50.076;8.848;2024-02-21T07:31:56;100553.50;;;8.58;98.68
23996;BME280;12207;50.076;8.848;2024-02-21T07:34:23;100552.75;;;8.85;97.81
23996;BME280;12207;50.076;8.848;2024-02-21T07:36:49;100549.69;;;9.09;96.54
23996;BME280;12207;50.076;8.848;2024-02-21T07:39:15;100557.22;;;9.27;94.70
23996;BME280;12207;50.076;8.848;2024-02-21T07:41:44;100558.50;;;9.31;93.05
23996;BME280;12207;50.076;8.848;2024-02-21T07:44:12;100557.28;;;9.34;92.64
23996;BME280;12207;50.076;8.848;2024-02-21T07:46:38;100556.16;;;9.21;93.70
23996;BME280;12207;50.076;8.848;2024-02-21T07:49:04;100562.53;;;9.20;93.16
23996;BME280;12207;50.076;8.848;2024-02-21T07:51:30;100557.44;;;9.04;94.31
23996;BME280;12207;50.076;8.848;2024-02-21T07:53:56;100551.72;;;9.07;94.56
23996;BME280;12207;50.076;8.848;2024-02-21T07:56:22;100553.75;;;9.05;94.53
23996;BME280;12207;50.076;8.848;2024-02-21T07:58:48;100550.56;;;9.16;93.20
23996;BME280;12207;50.076;8.848;2024-02-21T08:01:23;100555.50;;;9.41;92.89
23996;BME280;12207;50.076;8.848;2024-02-21T08:03:49;100553.91;;;9.53;92.15
23996;BME280;12207;50.076;8.848;2024-02-21T08:06:15;100561.00;;;9.67;92.44
23996;BME280;12207;50.076;8.848;2024-02-21T08:08:41;100553.84;;;9.74;90.45
23996;BME280;12207;50.076;8.848;2024-02-21T08:11:07;100553.94;;;9.94;90.79
23996;BME280;12207;50.076;8.848;2024-02-21T08:13:33;100546.53;;;9.96;89.32
23996;BME280;12207;50.076;8.848;2024-02-21T08:16:00;100548.19;;;9.90;88.93
23996;BME280;12207;50.076;8.848;2024-02-21T08:18:26;100546.53;;;9.96;89.02
23996;BME280;12207;50.076;8.848;2024-02-21T08:20:52;100540.75;;;9.92;89.62
23996;BME280;12207;50.076;8.848;2024-02-21T08:23:19;100535.41;;;9.92;89.29
23996;BME280;12207;50.076;8.848;2024-02-21T08:25:45;100542.81;;;9.90;89.62
23996;BME280;12207;50.076;8.848;2024-02-21T08:28:11;100542.41;;;9.93;90.29
23996;BME280;12207;50.076;8.848;2024-02-21T08:30:39;100532.72;;;9.92;88.28
23996;BME280;12207;50.076;8.848;2024-02-21T08:33:05;100532.94;;;9.98;88.74
23996;BME280;12207;50.076;8.848;2024-02-21T08:35:31;100525.13;;;9.89;87.70
23996;BME280;12207;50.076;8.848;2024-02-21T08:38:00;100524.69;;;9.92;87.90
23996;BME280;12207;50.076;8.848;2024-02-21T08:40:26;100523.47;;;9.95;87.24
23996;BME280;12207;50.076;8.848;2024-02-21T08:42:52;100526.81;;;10.04;87.35
23996;BME280;12207;50.076;8.848;2024-02-21T08:45:19;100524.69;;;9.92;87.14
23996;BME280;12207;50.076;8.848;2024-02-21T08:47:46;100521.81;;;9.87;86.59
23996;BME280;12207;50.076;8.848;2024-02-21T08:50:12;100522.59;;;9.81;87.61
23996;BME280;12207;50.076;8.848;2024-02-21T08:52:38;100519.97;;;9.95;86.59
23996;BME280;12207;50.076;8.848;2024-02-21T08:55:04;100521.06;;;10.07;87.56
23996;BME280;12207;50.076;8.848;2024-02-21T08:57:30;100520.19;;;10.00;85.88
23996;BME280;12207;50.076;8.848;2024-02-21T09:00:05;100517.47;;;9.93;86.16
23996;BME280;12207;50.076;8.848;2024-02-21T09:02:42;100515.72;;;10.07;86.04
23996;BME280;12207;50.076;8.848;2024-02-21T09:05:11;100514.53;;;10.22;86.00
23996;BME280;12207;50.076;8.848;2024-02-21T09:07:37;100496.78;;;10.15;84.86
23996;BME280;12207;50.076;8.848;2024-02-21T09:10:04;100489.06;;;9.92;85.57
23996;BME280;12207;50.076;8.848;2024-02-21T09:12:31;100490.28;;;9.83;86.45
23996;BME280;12207;50.076;8.848;2024-02-21T09:14:57;100503.28;;;9.92;85.36
23996;BME280;12207;50.076;8.848;2024-02-21T09:17:23;100484.63;;;10.12;85.53
23996;BME280;12207;50.076;8.848;2024-02-21T09:19:51;100484.31;;;10.48;84.63
23996;BME280;12207;50.076;8.848;2024-02-21T09:22:17;100482.03;;;10.45;83.94
23996;BME280;12207;50.076;8.848;2024-02-21T09:24:43;100482.69;;;10.67;82.94
23996;BME280;12207;50.076;8.848;2024-02-21T09:27:09;100481.03;;;10.46;83.11
23996;BME280;12207;50.076;8.848;2024-02-21T09:29:35;100475.03;;;10.31;84.46
23996;BME280;12207;50.076;8.848;2024-02-21T09:32:02;100472.13;;;10.26;84.23
23996;BME280;12207;50.076;8.848;2024-02-21T09:34:29;100466.78;;;10.33;84.40
23996;BME280;12207;50.076;8.848;2024-02-21T09:36:55;100467.19;;;10.30;84.22
23996;BME280;12207;50.076;8.848;2024-02-21T09:39:21;100469.03;;;10.29;83.08
23996;BME280;12207;50.076;8.848;2024-02-21T09:42:03;100464.63;;;10.08;84.55
23996;BME280;12207;50.076;8.848;2024-02-21T09:44:36;100465.91;;;10.12;83.97
23996;BME280;12207;50.076;8.848;2024-02-21T09:49:53;100461.06;;;9.95;85.43
23996;BME280;12207;50.076;8.848;2024-02-21T09:52:21;100467.47;;;10.00;86.61
23996;BME280;12207;50.076;8.848;2024-02-21T09:54:48;100471.22;;;10.06;85.63
23996;BME280;12207;50.076;8.848;2024-02-21T09:57:15;100459.69;;;10.18;86.15
23996;BME280;12207;50.076;8.848;2024-02-21T09:59:42;100457.53;;;10.35;85.45
23996;BME280;12207;50.076;8.848;2024-02-21T10:02:08;100458.78;;;10.39;84.46
23996;BME280;12207;50.076;8.848;2024-02-21T10:04:34;100455.88;;;10.47;82.44
23996;BME280;12207;50.076;8.848;2024-02-21T10:07:01;100461.44;;;10.66;81.58
23996;BME280;12207;50.076;8.848;2024-02-21T10:09:29;100460.44;;;10.80;82.42
23996;BME280;12207;50.076;8.848;2024-02-21T10:12:07;100457.75;;;10.80;80.58
23996;BME280;12207;50.076;8.848;2024-02-21T10:14:39;100450.53;;;11.00;81.96
23996;BME280;12207;50.076;8.848;2024-02-21T10:17:05;100452.78;;;11.16;79.87
23996;BME280;12207;50.076;8.848;2024-02-21T10:19:35;100436.31;;;11.00;79.95
23996;BME280;12207;50.076;8.848;2024-02-21T10:22:07;100444.97;;;10.88;79.71
23996;BME280;12207;50.076;8.848;2024-02-21T10:24:34;100434.03;;;10.97;80.94
23996;BME280;12207;50.076;8.848;2024-02-21T10:27:03;100435.47;;;10.92;80.09
23996;BME280;12207;50.076;8.848;2024-02-21T10:29:32;100434.88;;;10.84;79.37
23996;BME280;12207;50.076;8.848;2024-02-21T10:32:14;100428.47;;;10.98;80.61
23996;BME280;12207;50.076;8.848;2024-02-21T10:34:44;100408.63;;;11.12;79.85
23996;BME280;12207;50.076;8.848;2024-02-21T10:37:11;100410.63;;;11.37;79.23
23996;BME280;12207;50.076;8.848;2024-02-21T10:39:39;100394.44;;;11.63;78.64
23996;BME280;12207;50.076;8.848;2024-02-21T10:42:06;100397.25;;;11.30;78.48
23996;BME280;12207;50.076;8.848;2024-02-21T10:44:40;100386.38;;;11.05;79.23
23996;BME280;12207;50.076;8.848;2024-02-21T10:47:09;100391.53;;;11.00;79.85
23996;BME280;12207;50.076;8.848;2024-02-21T10:49:41;100392.72;;;11.24;78.17
23996;BME280;12207;50.076;8.848;2024-02-21T10:52:51;100388.25;;;11.05;78.61
23996;BME280;12207;50.076;8.848;2024-02-21T10:55:21;100383.34;;;10.82;79.03
23996;BME280;12207;50.076;8.848;2024-02-21T10:57:56;100383.13;;;10.83;78.97
23996;BME280;12207;50.076;8.848;2024-02-21T11:00:23;100376.28;;;11.07;80.19
23996;BME280;12207;50.076;8.848;2024-02-21T11:02:57;100373.09;;;11.30;80.30
23996;BME280;12207;50.076;8.848;2024-02-21T11:05:28;100370.84;;;11.27;79.95
23996;BME280;12207;50.076;8.848;2024-02-21T11:07:55;100360.66;;;11.49;79.48
23996;BME280;12207;50.076;8.848;2024-02-21T11:10:24;100361.69;;;11.48;76.64
23996;BME280;12207;50.076;8.848;2024-02-21T11:13:14;100364.66;;;11.71;76.88
23996;BME280;12207;50.076;8.848;2024-02-21T11:15:40;100352.19;;;11.52;75.97
23996;BME280;12207;50.076;8.848;2024-02-21T11:18:07;100351.78;;;11.42;77.41
23996;BME280;12207;50.076;8.848;2024-02-21T11:20:39;100346.59;;;11.53;76.36
23996;BME280;12207;50.076;8.848;2024-02-21T11:23:05;100332.16;;;11.48;75.62
23996;BME280;12207;50.076;8.848;2024-02-21T11:25:33;100330.28;;;11.55;77.65
23996;BME280;12207;50.076;8.848;2024-02-21T11:28:03;100321.56;;;11.59;75.96
23996;BME280;12207;50.076;8.848;2024-02-21T11:30:32;100323.38;;;11.72;75.28
23996;BME280;12207;50.076;8.848;2024-02-21T11:33:07;100326.56;;;11.94;75.21
23996;BME280;12207;50.076;8.848;2024-02-21T11:35:34;100315.66;;;12.14;73.91
23996;BME280;12207;50.076;8.848;2024-02-21T11:38:11;100310.84;;;12.22;74.26
23996;BME280;12207;50.076;8.848;2024-02-21T11:40:41;100301.38;;;12.20;74.76
23996;BME280;12207;50.076;8.848;2024-02-21T11:43:07;100302.88;;;12.09;74.09
23996;BME280;12207;50.076;8.848;2024-02-21T11:45:34;100294.72;;;11.98;74.29
23996;BME280;12207;50.076;8.848;2024-02-21T11:48:00;100292.22;;;12.03;75.21
23996;BME280;12207;50.076;8.848;2024-02-21T11:50:30;100287.63;;;11.78;75.11
23996;BME280;12207;50.076;8.848;2024-02-21T11:52:57;100279.03;;;11.94;76.22
23996;BME280;12207;50.076;8.848;2024-02-21T11:55:24;100275.28;;;12.02;73.78
23996;BME280;12207;50.076;8.848;2024-02-21T11:57:53;100268.63;;;12.05;74.28
23996;BME280;12207;50.076;8.848;2024-02-21T12:00:20;100260.91;;;11.90;74.33
23996;BME280;12207;50.076;8.848;2024-02-21T12:02:47;100261.97;;;11.82;75.30
23996;BME280;12207;50.076;8.848;2024-02-21T12:05:14;100257.66;;;12.06;74.26
23996;BME280;12207;50.076;8.848;2024-02-21T12:07:41;100250.00;;;12.10;75.46
23996;BME280;12207;50.076;8.848;2024-02-21T12:10:13;100247.91;;;12.12;73.29
23996;BME280;12207;50.076;8.848;2024-02-21T12:12:40;100231.84;;;12.05;74.48
23996;BME280;12207;50.076;8.848;2024-02-21T12:15:07;100229.25;;;11.99;75.52
23996;BME280;12207;50.076;8.848;2024-02-21T12:17:34;100223.13;;;11.85;75.86
23996;BME280;12207;50.076;8.848;2024-02-21T12:20:01;100217.97;;;11.83;75.86
23996;BME280;12207;50.076;8.848;2024-02-21T12:22:30;100214.94;;;11.48;76.38
23996;BME280;12207;50.076;8.848;2024-02-21T12:24:58;100205.44;;;11.46;77.34
23996;BME280;12207;50.076;8.848;2024-02-21T12:27:25;100198.84;;;11.48;77.91
23996;BME280;12207;50.076;8.848;2024-02-21T12:29:52;100190.06;;;11.59;77.33
23996;BME280;12207;50.076;8.848;2024-02-21T12:32:18;100194.03;;;11.57;75.48
23996;BME280;12207;50.076;8.848;2024-02-21T12:34:44;100194.28;;;11.49;77.11
23996;BME280;12207;50.076;8.848;2024-02-21T12:37:13;100183.66;;;11.60;76.29
23996;BME280;12207;50.076;8.848;2024-02-21T12:39:42;100177.16;;;11.75;77.88
23996;BME280;12207;50.076;8.848;2024-02-21T12:42:09;100176.81;;;11.65;76.78
23996;BME280;12207;50.076;8.848;2024-02-21T12:44:37;100171.84;;;11.68;76.17
23996;BME280;12207;50.076;8.848;2024-02-21T12:47:04;100174.16;;;11.89;76.80
23996;BME280;12207;50.076;8.848;2024-02-21T12:49:30;100151.03;;;11.88;75.02
23996;BME280;12207;50.076;8.848;2024-02-21T12:51:56;100132.72;;;12.04;75.23
23996;BME280;12207;50.076;8.848;2024-02-21T12:54:22;100143.16;;;12.12;74.10
23996;BME280;12207;50.076;8.848;2024-02-21T12:56:49;100142.56;;;12.10;76.03